Time;durP1;ratioP1;P1;durP2;ratioP2;P2;SDS_P1;SDS_P2;PMS_P1;PMS_P2;Temp;Humidity;BMP_temperature;BMP_pressure;BME280_temperature;BME280_humidity;BME280_pressure;Samples;Min_cycle;Max_cycle;Signal;HPM_P1;HPM_P2
2024/04/03 00:02:21;;;;;;;;;;;;;;;;;;2209564;67;1654;-17
2024/04/03 00:04:51;;;;;;;;;;;;;;;;;;2204166;67;1891;-17
2024/04/03 00:07:22;;;;;;;;;;;;;;;;;;2206768;67;2004;-17
2024/04/03 00:09:52;;;;;;;;;;;;;;;;;;2205494;67;1688;-17
2024/04/03 00:12:22;;;;;;;;;;;;;;;;;;2208990;67;1568;-17
2024/04/03 00:14:53;;;;;;;;;;;;;;;;;;2205003;59;1920;-17
2024/04/03 00:17:23;;;;;;;;;;;;;;;;;;2205822;67;1835;-17
2024/04/03 00:19:53;;;;;;;;;;;;;;;;;;2205202;59;1968;-17
2024/04/03 00:22:24;;;;;;;;;;;;;;;;;;2206507;67;2010;-18
2024/04/03 00:24:54;;;;;;;;;;;;;;;;;;2206769;59;1880;-17
2024/04/03 00:27:24;;;;;;;;;;;;;;;;;;2206874;67;1540;-17
2024/04/03 00:29:55;;;;;;;;;;;;;;;;;;2204828;67;2018;-17
2024/04/03 00:32:25;;;;;;;;;;;;;;;;;;2206356;67;1719;-17
2024/04/03 00:34:56;;;;;;;;;;;;;;;;;;2204824;59;1905;-17
2024/04/03 00:37:26;;;;;;;;;;;;;;;;;;2206554;59;1904;-17
2024/04/03 00:39:56;;;;;;;;;;;;;;;;;;2203862;59;1856;-17
2024/04/03 00:42:27;;;;;;;;;;;;;;;;;;2206482;67;1927;-17
2024/04/03 00:44:57;;;;;;;;;;;;;;;;;;2204456;59;1968;-17
2024/04/03 00:47:27;;;;;;;;;;;;;;;;;;2206091;67;1997;-17
2024/04/03 00:49:58;;;;;;;;;;;;;;;;;;2204961;59;1894;-17
2024/04/03 00:52:32;;;;;;;;;;;;;;;;;;2208683;66;1729;-17
2024/04/03 00:55:02;;;;;;;;;;;;;;;;;;2206640;59;1653;-17
2024/04/03 00:57:33;;;;;;;;;;;;;;;;;;2206766;67;1612;-17
2024/04/03 01:00:04;;;;;;;;;;;;;;;;;;2205301;59;1600;-17
2024/04/03 01:02:34;;;;;;;;;;;;;;;;;;2206078;67;1911;-17
2024/04/03 01:05:05;;;;;;;;;;;;;;;;;;2204688;67;1593;-17
2024/04/03 01:07:36;;;;;;;;;;;;;;;;;;2205409;67;1607;-17
2024/04/03 01:10:06;;;;;;;;;;;;;;;;;;2204471;67;1858;-17
2024/04/03 01:12:37;;;;;;;;;;;;;;;;;;2206339;67;1640;-17
2024/04/03 01:15:07;;;;;;;;;;;;;;;;;;2204257;59;2177;-18
2024/04/03 01:17:37;;;;;;;;;;;;;;;;;;2206571;60;1545;-17
2024/04/03 01:20:08;;;;;;;;;;;;;;;;;;2204197;59;2032;-17
2024/04/03 01:22:39;;;;;;;;;;;;;;;;;;2206717;59;2030;-17
2024/04/03 01:25:09;;;;;;;;;;;;;;;;;;2203979;67;1756;-17
2024/04/03 01:27:39;;;;;;;;;;;;;;;;;;2206036;67;1961;-17
2024/04/03 01:30:10;;;;;;;;;;;;;;;;;;2203957;67;1843;-17
2024/04/03 01:32:41;;;;;;;;;;;;;;;;;;2206603;67;1724;-17
2024/04/03 01:35:11;;;;;;;;;;;;;;;;;;2205484;59;2367;-17
2024/04/03 01:37:43;;;;;;;;;;;;;;;;;;2205131;59;1994;-17
2024/04/03 01:40:13;;;;;;;;;;;;;;;;;;2204573;60;2132;-17
2024/04/03 01:42:44;;;;;;;;;;;;;;;;;;2205608;67;1943;-17
2024/04/03 01:45:14;;;;;;;;;;;;;;;;;;2204866;59;1724;-17
2024/04/03 01:47:45;;;;;;;;;;;;;;;;;;2205075;67;1857;-17
2024/04/03 01:50:19;;;;;;;;;;;;;;;;;;2206202;59;1732;-17
2024/04/03 01:52:49;;;;;;;;;;;;;;;;;;2204913;67;1855;-17
2024/04/03 01:55:19;;;;;;;;;;;;;;;;;;2206883;59;1606;-17
2024/04/03 01:57:50;;;;;;;;;;;;;;;;;;2204290;67;1624;-17
2024/04/03 02:00:20;;;;;;;;;;;;;;;;;;2205204;67;1736;-17
2024/04/03 02:02:50;;;;;;;;;;;;;;;;;;2204825;67;1980;-17
2024/04/03 02:05:21;;;;;;;;;;;;;;;;;;2206644;67;1549;-17
2024/04/03 02:07:51;;;;;;;;;;;;;;;;;;2204435;67;1599;-17
2024/04/03 02:10:21;;;;;;;;;;;;;;;;;;2205909;67;1599;-17
2024/04/03 02:12:52;;;;;;;;;;;;;;;;;;2206508;59;1612;-17
2024/04/03 02:15:22;;;;;;;;;;;;;;;;;;2206987;59;1675;-17
2024/04/03 02:17:52;;;;;;;;;;;;;;;;;;2204168;67;1578;-17
2024/04/03 02:20:26;;;;;;;;;;;;;;;;;;2206199;59;1571;-17
2024/04/03 02:22:56;;;;;;;;;;;;;;;;;;2204830;67;1970;-18
2024/04/03 02:25:27;;;;;;;;;;;;;;;;;;2205642;67;1634;-17
2024/04/03 02:27:57;;;;;;;;;;;;;;;;;;2204205;67;1518;-17
2024/04/03 02:30:28;;;;;;;;;;;;;;;;;;2208316;67;1710;-17
2024/04/03 02:33:01;;;;;;;;;;;;;;;;;;2204896;67;1567;-17
2024/04/03 02:35:32;;;;;;;;;;;;;;;;;;2206422;67;2057;-17
2024/04/03 02:38:02;;;;;;;;;;;;;;;;;;2203128;67;1610;-17
2024/04/03 02:40:32;;;;;;;;;;;;;;;;;;2206852;59;1726;-17
2024/04/03 02:43:03;;;;;;;;;;;;;;;;;;2204424;67;1948;-17
2024/04/03 02:45:33;;;;;;;;;;;;;;;;;;2203846;59;1780;-17
2024/04/03 02:48:03;;;;;;;;;;;;;;;;;;2206850;67;1694;-17
2024/04/03 02:50:34;;;;;;;;;;;;;;;;;;2207138;59;1607;-17
2024/04/03 02:53:04;;;;;;;;;;;;;;;;;;2204560;59;1684;-17
2024/04/03 02:55:38;;;;;;;;;;;;;;;;;;2205772;67;1675;-17
2024/04/03 02:58:08;;;;;;;;;;;;;;;;;;2204602;67;2045;-17
2024/04/03 03:00:38;;;;;;;;;;;;;;;;;;2206297;59;1748;-17
2024/04/03 03:03:09;;;;;;;;;;;;;;;;;;2203547;67;1936;-17
2024/04/03 03:05:39;;;;;;;;;;;;;;;;;;2206049;67;1507;-18
2024/04/03 03:08:13;;;;;;;;;;;;;;;;;;2204030;67;1634;-17
2024/04/03 03:10:43;;;;;;;;;;;;;;;;;;2206678;59;1565;-17
2024/04/03 03:13:13;;;;;;;;;;;;;;;;;;2210335;53;2364;-21
2024/04/03 03:15:53;;;;;;;;;;;;;;;;;;2204267;59;1745;-22
2024/04/03 03:18:24;;;;;;;;;;;;;;;;;;2205703;59;1871;-21
2024/04/03 03:20:54;;;;;;;;;;;;;;;;;;2204873;59;1747;-21
2024/04/03 03:23:25;;;;;;;;;;;;;;;;;;2202918;59;1936;-21
2024/04/03 03:25:55;;;;;;;;;;;;;;;;;;2200000;67;2028;-21
2024/04/03 03:28:25;;;;;;;;;;;;;;;;;;2202675;59;2215;-22
2024/04/03 03:30:58;;;;;;;;;;;;;;;;;;2201703;59;1767;-21
2024/04/03 03:33:28;;;;;;;;;;;;;;;;;;2203146;67;2208;-21
2024/04/03 03:35:59;;;;;;;;;;;;;;;;;;2202064;67;1766;-22
2024/04/03 03:38:29;;;;;;;;;;;;;;;;;;2203851;59;2060;-21
2024/04/03 03:41:02;;;;;;;;;;;;;;;;;;2202580;59;3491;-22
2024/04/03 03:43:32;;;;;;;;;;;;;;;;;;2203024;59;2676;-22
2024/04/03 03:46:02;;;;;;;;;;;;;;;;;;2202131;59;2145;-22
2024/04/03 03:54:10;;;;;;;;;;;;;;;;;;2207457;67;2409;-21
2024/04/03 03:56:41;;;;;;;;;;;;;;;;;;2208344;67;2011;-22
2024/04/03 03:59:11;;;;;;;;;;;;;;;;;;2207757;59;2202;-23
2024/04/03 04:01:41;;;;;;;;;;;;;;;;;;2209325;59;2061;-23
2024/04/03 04:04:11;;;;;;;;;;;;;;;;;;2204658;67;1916;-23
2024/04/03 04:06:42;;;;;;;;;;;;;;;;;;2206207;67;1767;-23
2024/04/03 04:09:12;;;;;;;;;;;;;;;;;;2203078;67;1944;-23
2024/04/03 04:11:42;;;;;;;;;;;;;;;;;;2203661;67;2635;-23
2024/04/03 04:14:12;;;;;;;;;;;;;;;;;;2203707;59;2093;-23
2024/04/03 04:16:42;;;;;;;;;;;;;;;;;;2201031;59;2290;-23
2024/04/03 04:19:13;;;;;;;;;;;;;;;;;;2199378;59;2480;-23
2024/04/03 04:21:43;;;;;;;;;;;;;;;;;;2203642;59;1742;-23
2024/04/03 04:24:20;;;;;;;;;;;;;;;;;;2202564;59;2629;-23
2024/04/03 04:26:58;;;;;;;;;;;;;;;;;;2203216;67;2347;-23
2024/04/03 04:29:28;;;;;;;;;;;;;;;;;;2203866;67;2105;-23
2024/04/03 04:31:59;;;;;;;;;;;;;;;;;;2202737;59;1929;-23
2024/04/03 04:34:29;;;;;;;;;;;;;;;;;;2204280;67;1734;-23
2024/04/03 04:36:59;;;;;;;;;;;;;;;;;;2203017;59;2584;-23
2024/04/03 04:39:30;;;;;;;;;;;;;;;;;;2203431;59;2741;-23
2024/04/03 04:42:00;;;;;;;;;;;;;;;;;;2199802;59;1815;-23
2024/04/03 04:44:31;;;;;;;;;;;;;;;;;;2203408;59;2641;-23
2024/04/03 04:47:01;;;;;;;;;;;;;;;;;;2202589;59;2224;-23
2024/04/03 04:49:32;;;;;;;;;;;;;;;;;;2203061;59;1794;-23
2024/04/03 04:52:02;;;;;;;;;;;;;;;;;;2201845;67;1836;-23
2024/04/03 04:54:32;;;;;;;;;;;;;;;;;;2203747;67;2338;-23
2024/04/03 04:57:09;;;;;;;;;;;;;;;;;;2202263;67;1861;-23
2024/04/03 04:59:39;;;;;;;;;;;;;;;;;;2202275;59;1975;-23
2024/04/03 05:02:09;;;;;;;;;;;;;;;;;;2201256;67;2267;-23
2024/04/03 05:04:40;;;;;;;;;;;;;;;;;;2203468;67;1941;-23
2024/04/03 05:07:10;;;;;;;;;;;;;;;;;;2201934;67;1881;-23
2024/04/03 05:09:41;;;;;;;;;;;;;;;;;;2200276;67;2656;-23
2024/04/03 05:12:11;;;;;;;;;;;;;;;;;;2202117;59;1672;-23
2024/04/03 05:14:41;;;;;;;;;;;;;;;;;;2203721;59;1914;-23
2024/04/03 05:17:13;;;;;;;;;;;;;;;;;;2201392;67;2020;-23
2024/04/03 05:19:43;;;;;;;;;;;;;;;;;;2203802;59;1856;-23
2024/04/03 05:22:15;;;;;;;;;;;;;;;;;;2202208;59;2437;-23
2024/04/03 05:24:45;;;;;;;;;;;;;;;;;;2204005;59;1936;-22
2024/04/03 05:27:15;;;;;;;;;;;;;;;;;;2202513;67;1267;-23
2024/04/03 05:29:45;;;;;;;;;;;;;;;;;;2203241;59;1419;-23
2024/04/03 05:32:16;;;;;;;;;;;;;;;;;;2202108;67;1809;-23
2024/04/03 05:34:46;;;;;;;;;;;;;;;;;;2203100;59;1815;-23
2024/04/03 05:37:16;;;;;;;;;;;;;;;;;;2203012;59;2448;-23
2024/04/03 05:39:46;;;;;;;;;;;;;;;;;;2202441;59;1727;-23
2024/04/03 05:42:19;;;;;;;;;;;;;;;;;;2202228;59;1590;-23
2024/04/03 05:44:50;;;;;;;;;;;;;;;;;;2202986;67;2007;-23
2024/04/03 05:47:21;;;;;;;;;;;;;;;;;;2202920;67;1785;-23
2024/04/03 05:49:54;;;;;;;;;;;;;;;;;;2203128;58;1151;-23
2024/04/03 05:52:25;;;;;;;;;;;;;;;;;;2202909;67;1457;-23
2024/04/03 05:54:55;;;;;;;;;;;;;;;;;;2202806;59;1468;-23
2024/04/03 05:57:25;;;;;;;;;;;;;;;;;;2201962;67;1207;-23
2024/04/03 05:59:55;;;;;;;;;;;;;;;;;;2203743;67;1512;-23
2024/04/03 06:02:26;;;;;;;;;;;;;;;;;;2202082;67;1272;-23
2024/04/03 06:04:56;;;;;;;;;;;;;;;;;;2203265;67;2016;-23
2024/04/03 06:07:26;;;;;;;;;;;;;;;;;;2201695;67;1905;-23
2024/04/03 06:09:56;;;;;;;;;;;;;;;;;;2203452;67;1735;-23
2024/04/03 06:12:26;;;;;;;;;;;;;;;;;;2202411;59;1511;-23
2024/04/03 06:14:57;;;;;;;;;;;;;;;;;;2203607;59;1456;-23
2024/04/03 06:17:27;;;;;;;;;;;;;;;;;;2201059;59;2986;-23
2024/04/03 06:19:58;;;;;;;;;;;;;;;;;;2203149;59;1759;-23
2024/04/03 06:22:28;;;;;;;;;;;;;;;;;;2197648;59;2562;-23
2024/04/03 06:24:58;;;;;;;;;;;;;;;;;;2202254;59;1945;-23
2024/04/03 06:27:28;;;;;;;;;;;;;;;;;;2198819;67;1514;-23
2024/04/03 06:29:59;;;;;;;;;;;;;;;;;;2203383;67;1576;-23
2024/04/03 06:32:29;;;;;;;;;;;;;;;;;;2200684;59;1826;-22
2024/04/03 06:35:00;;;;;;;;;;;;;;;;;;2202137;59;2101;-22
2024/04/03 06:37:30;;;;;;;;;;;;;;;;;;2199953;59;1798;-22
2024/04/03 06:40:00;;;;;;;;;;;;;;;;;;2201265;59;2756;-22
2024/04/03 06:42:30;;;;;;;;;;;;;;;;;;2200568;59;1688;-22
2024/04/03 06:45:00;;;;;;;;;;;;;;;;;;2199767;59;2532;-22
2024/04/03 06:47:31;;;;;;;;;;;;;;;;;;2198746;67;2188;-22
2024/04/03 06:50:02;;;;;;;;;;;;;;;;;;2201722;67;1750;-22
2024/04/03 06:52:32;;;;;;;;;;;;;;;;;;2201504;67;1711;-22
2024/04/03 06:55:02;;;;;;;;;;;;;;;;;;2202485;59;1402;-22
2024/04/03 06:57:33;;;;;;;;;;;;;;;;;;2201595;67;1499;-22
2024/04/03 07:00:06;;;;;;;;;;;;;;;;;;2201480;67;1520;-22
2024/04/03 07:02:36;;;;;;;;;;;;;;;;;;2201824;59;1694;-22
2024/04/03 07:05:07;;;;;;;;;;;;;;;;;;2202086;67;1933;-23
2024/04/03 07:07:37;;;;;;;;;;;;;;;;;;2201950;67;1149;-23
2024/04/03 07:10:09;;;;;;;;;;;;;;;;;;2203330;67;1549;-23
2024/04/03 07:12:39;;;;;;;;;;;;;;;;;;2203534;59;1581;-23
2024/04/03 07:15:12;;;;;;;;;;;;;;;;;;2204597;59;1371;-23
2024/04/03 07:17:43;;;;;;;;;;;;;;;;;;2202995;67;1278;-23
2024/04/03 07:20:13;;;;;;;;;;;;;;;;;;2203324;59;1569;-23
2024/04/03 07:22:43;;;;;;;;;;;;;;;;;;2203018;59;1930;-23
2024/04/03 07:25:13;;;;;;;;;;;;;;;;;;2201528;59;1176;-23
2024/04/03 07:27:44;;;;;;;;;;;;;;;;;;2203751;67;1144;-23
2024/04/03 07:30:15;;;;;;;;;;;;;;;;;;2202882;59;1657;-23
2024/04/03 07:32:45;;;;;;;;;;;;;;;;;;2204054;59;1466;-23
2024/04/03 07:35:15;;;;;;;;;;;;;;;;;;2202179;59;1677;-22
2024/04/03 07:37:46;;;;;;;;;;;;;;;;;;2204149;59;1508;-22
2024/04/03 07:40:16;;;;;;;;;;;;;;;;;;2203195;59;1711;-22
2024/04/03 07:42:47;;;;;;;;;;;;;;;;;;2203418;67;2156;-22
2024/04/03 07:45:17;;;;;;;;;;;;;;;;;;2202712;59;1574;-22
2024/04/03 07:47:48;;;;;;;;;;;;;;;;;;2203707;59;1579;-22
2024/04/03 07:50:19;;;;;;;;;;;;;;;;;;2202444;67;1305;-23
2024/04/03 07:52:53;;;;;;;;;;;;;;;;;;2203017;67;1539;-23
2024/04/03 07:55:23;;;;;;;;;;;;;;;;;;2202914;67;1252;-23
2024/04/03 07:57:53;;;;;;;;;;;;;;;;;;2202873;67;1669;-22
2024/04/03 08:00:24;;;;;;;;;;;;;;;;;;2202857;59;1947;-23
2024/04/03 08:02:54;;;;;;;;;;;;;;;;;;2202049;59;1995;-24
2024/04/03 08:05:24;;;;;;;;;;;;;;;;;;2202427;67;1187;-24
2024/04/03 08:07:55;;;;;;;;;;;;;;;;;;2203061;67;1524;-23
2024/04/03 08:10:25;;;;;;;;;;;;;;;;;;2202652;67;1469;-23
2024/04/03 08:12:55;;;;;;;;;;;;;;;;;;2203660;59;1616;-23
2024/04/03 08:15:25;;;;;;;;;;;;;;;;;;2204457;59;1427;-23
2024/04/03 08:17:56;;;;;;;;;;;;;;;;;;2203250;66;1522;-23
2024/04/03 08:20:26;;;;;;;;;;;;;;;;;;2202461;59;1658;-23
2024/04/03 08:22:57;;;;;;;;;;;;;;;;;;2203228;59;1949;-23
2024/04/03 08:25:27;;;;;;;;;;;;;;;;;;2201946;67;1586;-23
2024/04/03 08:27:57;;;;;;;;;;;;;;;;;;2203331;67;1270;-23
2024/04/03 08:30:30;;;;;;;;;;;;;;;;;;2202986;59;1791;-23
2024/04/03 08:33:01;;;;;;;;;;;;;;;;;;2202805;67;1367;-23
2024/04/03 08:35:31;;;;;;;;;;;;;;;;;;2202162;59;1897;-23
2024/04/03 08:38:01;;;;;;;;;;;;;;;;;;2203220;59;1689;-23
2024/04/03 08:40:31;;;;;;;;;;;;;;;;;;2201913;59;1868;-22
2024/04/03 08:43:02;;;;;;;;;;;;;;;;;;2200148;67;1929;-23
2024/04/03 08:45:34;;;;;;;;;;;;;;;;;;2202650;59;1818;-23
2024/04/03 08:48:05;;;;;;;;;;;;;;;;;;2201901;59;2003;-23
2024/04/03 08:50:35;;;;;;;;;;;;;;;;;;2201710;67;2146;-23
2024/04/03 08:53:06;;;;;;;;;;;;;;;;;;2202996;67;1274;-23
2024/04/03 08:55:38;;;;;;;;;;;;;;;;;;2201281;67;1393;-23
2024/04/03 08:58:09;;;;;;;;;;;;;;;;;;2203235;67;1786;-23
2024/04/03 09:00:39;;;;;;;;;;;;;;;;;;2199886;67;1421;-23
2024/04/03 09:03:11;;;;;;;;;;;;;;;;;;2202160;59;1979;-23
2024/04/03 09:05:41;;;;;;;;;;;;;;;;;;2202930;67;1540;-23
2024/04/03 09:08:12;;;;;;;;;;;;;;;;;;2202761;67;1354;-23
2024/04/03 09:10:56;;;;;;;;;;;;;;;;;;2198920;67;1414;-23
2024/04/03 09:13:26;;;;;;;;;;;;;;;;;;2201692;59;1705;-23
2024/04/03 09:15:56;;;;;;;;;;;;;;;;;;2202967;59;1255;-23
2024/04/03 09:18:26;;;;;;;;;;;;;;;;;;2201863;67;1226;-23
2024/04/03 09:20:57;;;;;;;;;;;;;;;;;;2202684;59;1569;-23
2024/04/03 09:23:30;;;;;;;;;;;;;;;;;;2201734;59;1936;-23
2024/04/03 09:26:05;;;;;;;;;;;;;;;;;;2203393;67;1651;-23
2024/04/03 09:28:35;;;;;;;;;;;;;;;;;;2202466;67;1454;-23
2024/04/03 09:31:05;;;;;;;;;;;;;;;;;;2203106;67;1452;-23
2024/04/03 09:33:36;;;;;;;;;;;;;;;;;;2199795;59;1669;-24
2024/04/03 09:36:08;;;;;;;;;;;;;;;;;;2202789;67;1428;-24
2024/04/03 09:38:38;;;;;;;;;;;;;;;;;;2202000;59;1651;-24
2024/04/03 09:41:10;;;;;;;;;;;;;;;;;;2203591;59;1714;-24
2024/04/03 09:43:45;;;;;;;;;;;;;;;;;;2201034;67;2334;-24
2024/04/03 09:46:17;;;;;;;;;;;;;;;;;;2202310;59;1511;-24
2024/04/03 09:48:51;;;;;;;;;;;;;;;;;;2202556;67;1446;-24
2024/04/03 09:51:21;;;;;;;;;;;;;;;;;;2204618;66;1704;-24
2024/04/03 09:53:52;;;;;;;;;;;;;;;;;;2203553;67;1356;-24
2024/04/03 09:56:23;;;;;;;;;;;;;;;;;;2201666;67;1478;-24
2024/04/03 09:58:53;;;;;;;;;;;;;;;;;;2203472;67;1700;-24
2024/04/03 10:01:28;;;;;;;;;;;;;;;;;;2201909;67;1571;-24
2024/04/03 10:04:03;;;;;;;;;;;;;;;;;;2201982;66;1937;-24
2024/04/03 10:06:41;;;;;;;;;;;;;;;;;;2202398;59;1477;-24
2024/04/03 10:09:25;;;;;;;;;;;;;;;;;;2207809;53;2701;-21
2024/04/03 10:11:57;;;;;;;;;;;;;;;;;;2209250;59;2290;-20
2024/04/03 10:14:28;;;;;;;;;;;;;;;;;;2203994;59;1882;-21
2024/04/03 10:16:59;;;;;;;;;;;;;;;;;;2206400;67;3510;-21
2024/04/03 10:19:39;;;;;;;;;;;;;;;;;;2206731;59;1858;-20
2024/04/03 10:22:14;;;;;;;;;;;;;;;;;;2206784;67;2539;-21
2024/04/03 10:24:45;;;;;;;;;;;;;;;;;;2211197;58;1929;-21
2024/04/03 10:27:17;;;;;;;;;;;;;;;;;;2208754;59;1857;-21
2024/04/03 10:29:58;;;;;;;;;;;;;;;;;;2207761;67;1675;-21
2024/04/03 10:32:28;;;;;;;;;;;;;;;;;;2207648;59;1830;-20
2024/04/03 10:34:59;;;;;;;;;;;;;;;;;;2209174;59;1886;-20
2024/04/03 10:37:29;;;;;;;;;;;;;;;;;;2207577;59;1775;-21
2024/04/03 10:40:00;;;;;;;;;;;;;;;;;;2209862;59;1880;-20
2024/04/03 10:42:30;;;;;;;;;;;;;;;;;;2208716;67;2146;-21
2024/04/03 10:45:01;;;;;;;;;;;;;;;;;;2210580;59;2080;-20
2024/04/03 10:47:31;;;;;;;;;;;;;;;;;;2209549;59;1852;-21
2024/04/03 10:50:02;;;;;;;;;;;;;;;;;;2210072;67;1590;-20
2024/04/03 10:52:32;;;;;;;;;;;;;;;;;;2208770;67;1999;-20
2024/04/03 10:55:03;;;;;;;;;;;;;;;;;;2209720;67;1816;-21
2024/04/03 10:57:33;;;;;;;;;;;;;;;;;;2209022;67;1789;-20
2024/04/03 11:00:04;;;;;;;;;;;;;;;;;;2210932;59;1796;-20
2024/04/03 11:02:34;;;;;;;;;;;;;;;;;;2209018;59;1814;-20
2024/04/03 11:05:04;;;;;;;;;;;;;;;;;;2210358;67;1996;-20
2024/04/03 11:07:34;;;;;;;;;;;;;;;;;;2208851;67;2057;-20
2024/04/03 11:10:06;;;;;;;;;;;;;;;;;;2209949;59;2488;-20
2024/04/03 11:12:37;;;;;;;;;;;;;;;;;;2208315;59;1693;-20
2024/04/03 11:15:10;;;;;;;;;;;;;;;;;;2210170;59;1967;-20
2024/04/03 11:17:40;;;;;;;;;;;;;;;;;;2208303;67;2135;-20
2024/04/03 11:20:11;;;;;;;;;;;;;;;;;;2208381;58;2198;-21
2024/04/03 11:22:41;;;;;;;;;;;;;;;;;;2209112;59;2018;-20
2024/04/03 11:25:12;;;;;;;;;;;;;;;;;;2206867;67;1914;-20
2024/04/03 11:27:42;;;;;;;;;;;;;;;;;;2207532;67;1717;-20
2024/04/03 11:30:12;;;;;;;;;;;;;;;;;;2209919;59;2100;-20
2024/04/03 11:32:43;;;;;;;;;;;;;;;;;;2208266;59;2146;-20
2024/04/03 11:35:13;;;;;;;;;;;;;;;;;;2208843;59;3083;-20
2024/04/03 11:37:44;;;;;;;;;;;;;;;;;;2209255;59;2150;-20
2024/04/03 11:40:14;;;;;;;;;;;;;;;;;;2209328;59;1774;-20
2024/04/03 11:42:44;;;;;;;;;;;;;;;;;;2208748;67;1956;-20
2024/04/03 11:45:15;;;;;;;;;;;;;;;;;;2209526;59;1943;-20
2024/04/03 11:47:45;;;;;;;;;;;;;;;;;;2208339;67;1871;-20
2024/04/03 11:50:15;;;;;;;;;;;;;;;;;;2208592;59;2364;-20
2024/04/03 11:52:46;;;;;;;;;;;;;;;;;;2208445;59;2193;-20
2024/04/03 11:55:16;;;;;;;;;;;;;;;;;;2207471;59;1874;-20
2024/04/03 11:57:47;;;;;;;;;;;;;;;;;;2208734;59;1879;-20
2024/04/03 12:00:17;;;;;;;;;;;;;;;;;;2208487;59;1944;-20
2024/04/03 12:02:48;;;;;;;;;;;;;;;;;;2207702;67;1982;-20
2024/04/03 12:05:21;;;;;;;;;;;;;;;;;;2209426;67;1945;-20
2024/04/03 12:07:51;;;;;;;;;;;;;;;;;;2208929;58;2345;-21
2024/04/03 12:10:26;;;;;;;;;;;;;;;;;;2209809;59;1880;-20
2024/04/03 12:12:56;;;;;;;;;;;;;;;;;;2208242;59;1921;-20
2024/04/03 12:15:26;;;;;;;;;;;;;;;;;;2206879;59;2031;-20
2024/04/03 12:17:59;;;;;;;;;;;;;;;;;;2208789;59;1791;-20
2024/04/03 12:20:30;;;;;;;;;;;;;;;;;;2207202;59;2339;-20
2024/04/03 12:23:01;;;;;;;;;;;;;;;;;;2207432;59;2323;-20
2024/04/03 12:25:31;;;;;;;;;;;;;;;;;;2206180;64;2291;-20
2024/04/03 12:28:02;;;;;;;;;;;;;;;;;;2207316;59;2237;-20
2024/04/03 12:30:33;;;;;;;;;;;;;;;;;;2207489;67;1934;-20
2024/04/03 12:33:06;;;;;;;;;;;;;;;;;;2205069;62;1788;-20
2024/04/03 12:35:36;;;;;;;;;;;;;;;;;;2209711;58;1887;-21
2024/04/03 12:38:06;;;;;;;;;;;;;;;;;;2209159;59;1903;-21
2024/04/03 12:40:37;;;;;;;;;;;;;;;;;;2207522;59;1905;-20
2024/04/03 12:43:08;;;;;;;;;;;;;;;;;;2208974;67;1932;-21
2024/04/03 12:45:38;;;;;;;;;;;;;;;;;;2207628;59;1846;-20
2024/04/03 12:48:09;;;;;;;;;;;;;;;;;;2208986;59;3450;-21
2024/04/03 12:50:39;;;;;;;;;;;;;;;;;;2207476;67;1911;-20
2024/04/03 12:53:09;;;;;;;;;;;;;;;;;;2205960;59;1965;-21
2024/04/03 12:55:39;;;;;;;;;;;;;;;;;;2207706;59;1830;-20
2024/04/03 12:58:10;;;;;;;;;;;;;;;;;;2209092;67;2905;-21
2024/04/03 13:00:41;;;;;;;;;;;;;;;;;;2207897;67;2002;-21
2024/04/03 13:03:12;;;;;;;;;;;;;;;;;;2209175;67;2111;-20
2024/04/03 13:05:47;;;;;;;;;;;;;;;;;;2208284;66;2039;-20
2024/04/03 13:08:17;;;;;;;;;;;;;;;;;;2209180;67;2038;-20
2024/04/03 13:10:51;;;;;;;;;;;;;;;;;;2207469;59;1898;-21
2024/04/03 13:13:21;;;;;;;;;;;;;;;;;;2208029;59;1814;-20
2024/04/03 13:15:58;;;;;;;;;;;;;;;;;;2208371;59;1808;-21
2024/04/03 13:18:28;;;;;;;;;;;;;;;;;;2207010;66;1836;-21
2024/04/03 13:20:58;;;;;;;;;;;;;;;;;;2208128;59;2435;-20
2024/04/03 13:23:29;;;;;;;;;;;;;;;;;;2208143;59;2109;-20
2024/04/03 13:25:59;;;;;;;;;;;;;;;;;;2208718;59;2703;-20
2024/04/03 13:28:29;;;;;;;;;;;;;;;;;;2205514;67;2611;-20
2024/04/03 13:31:00;;;;;;;;;;;;;;;;;;2207314;67;2655;-20
2024/04/03 13:33:30;;;;;;;;;;;;;;;;;;2207381;66;2676;-20
2024/04/03 13:36:00;;;;;;;;;;;;;;;;;;2208579;67;2574;-20
2024/04/03 13:38:31;;;;;;;;;;;;;;;;;;2208091;59;1828;-20
2024/04/03 13:41:01;;;;;;;;;;;;;;;;;;2207949;59;2817;-20
2024/04/03 13:43:32;;;;;;;;;;;;;;;;;;2208886;67;2284;-20
2024/04/03 13:46:02;;;;;;;;;;;;;;;;;;2207549;59;2881;-20
2024/04/03 13:48:32;;;;;;;;;;;;;;;;;;2207594;67;1852;-20
2024/04/03 13:51:05;;;;;;;;;;;;;;;;;;2206085;67;3001;-21
2024/04/03 13:53:35;;;;;;;;;;;;;;;;;;2205893;67;2384;-20
2024/04/03 13:56:06;;;;;;;;;;;;;;;;;;2209818;66;1808;-20
2024/04/03 13:58:36;;;;;;;;;;;;;;;;;;2207603;59;2797;-20
2024/04/03 14:01:07;;;;;;;;;;;;;;;;;;2208726;67;2791;-20
2024/04/03 14:03:37;;;;;;;;;;;;;;;;;;2206155;67;1985;-20
2024/04/03 14:06:07;;;;;;;;;;;;;;;;;;2208527;67;1774;-20
2024/04/03 14:08:38;;;;;;;;;;;;;;;;;;2206629;59;2494;-20
2024/04/03 14:11:08;;;;;;;;;;;;;;;;;;2206918;59;2253;-20
2024/04/03 14:13:38;;;;;;;;;;;;;;;;;;2207973;59;1844;-20
2024/04/03 14:16:09;;;;;;;;;;;;;;;;;;2209161;66;2518;-20
2024/04/03 14:18:39;;;;;;;;;;;;;;;;;;2205094;59;2639;-20
2024/04/03 14:21:09;;;;;;;;;;;;;;;;;;2208623;59;1859;-20
2024/04/03 14:23:40;;;;;;;;;;;;;;;;;;2205939;59;1945;-20
2024/04/03 14:26:10;;;;;;;;;;;;;;;;;;2208308;67;1976;-20
2024/04/03 14:28:41;;;;;;;;;;;;;;;;;;2207130;67;2658;-20
2024/04/03 14:31:11;;;;;;;;;;;;;;;;;;2207216;66;2729;-20
2024/04/03 14:33:45;;;;;;;;;;;;;;;;;;2207412;59;1830;-21
2024/04/03 14:36:15;;;;;;;;;;;;;;;;;;2208730;67;1928;-20
2024/04/03 14:38:46;;;;;;;;;;;;;;;;;;2207137;59;1802;-20
2024/04/03 14:41:16;;;;;;;;;;;;;;;;;;2208012;59;2173;-20
2024/04/03 14:43:46;;;;;;;;;;;;;;;;;;2208895;63;2025;-21
2024/04/03 14:46:18;;;;;;;;;;;;;;;;;;2209006;59;2502;-21
2024/04/03 14:48:48;;;;;;;;;;;;;;;;;;2207318;67;2246;-21
2024/04/03 14:51:19;;;;;;;;;;;;;;;;;;2208276;67;2091;-20
2024/04/03 14:53:49;;;;;;;;;;;;;;;;;;2207678;66;2138;-21
2024/04/03 14:56:19;;;;;;;;;;;;;;;;;;2208364;67;3665;-21
2024/04/03 14:58:50;;;;;;;;;;;;;;;;;;2207441;59;2282;-21
2024/04/03 15:01:21;;;;;;;;;;;;;;;;;;2208117;67;2181;-21
2024/04/03 15:03:52;;;;;;;;;;;;;;;;;;2208494;67;1949;-21
2024/04/03 15:06:22;;;;;;;;;;;;;;;;;;2207621;67;2090;-21
2024/04/03 15:08:53;;;;;;;;;;;;;;;;;;2208045;67;1852;-21
2024/04/03 15:11:24;;;;;;;;;;;;;;;;;;2208971;59;2818;-21
2024/04/03 15:13:55;;;;;;;;;;;;;;;;;;2205566;59;2039;-21
2024/04/03 15:16:25;;;;;;;;;;;;;;;;;;2208276;59;2409;-21
2024/04/03 15:18:55;;;;;;;;;;;;;;;;;;2204243;67;1832;-21
2024/04/03 15:21:25;;;;;;;;;;;;;;;;;;2208277;59;2684;-21
2024/04/03 15:23:56;;;;;;;;;;;;;;;;;;2206792;59;2004;-21
2024/04/03 15:26:27;;;;;;;;;;;;;;;;;;2208986;67;2255;-21
2024/04/03 15:28:57;;;;;;;;;;;;;;;;;;2209903;66;2693;-21
2024/04/03 15:31:27;;;;;;;;;;;;;;;;;;2209695;67;1769;-21
2024/04/03 15:33:58;;;;;;;;;;;;;;;;;;2208253;59;2658;-21
2024/04/03 15:36:30;;;;;;;;;;;;;;;;;;2209663;67;2320;-21
2024/04/03 15:39:04;;;;;;;;;;;;;;;;;;2207783;59;2731;-21
2024/04/03 15:41:35;;;;;;;;;;;;;;;;;;2208571;58;3751;-21
2024/04/03 15:44:05;;;;;;;;;;;;;;;;;;2207026;59;2208;-21
2024/04/03 15:46:35;;;;;;;;;;;;;;;;;;2208845;67;1812;-21
2024/04/03 15:49:06;;;;;;;;;;;;;;;;;;2207484;59;2237;-21
2024/04/03 15:51:36;;;;;;;;;;;;;;;;;;2209310;67;1937;-21
2024/04/03 15:54:06;;;;;;;;;;;;;;;;;;2207584;59;2400;-21
2024/04/03 15:56:36;;;;;;;;;;;;;;;;;;2209112;67;2081;-21
2024/04/03 15:59:07;;;;;;;;;;;;;;;;;;2209604;66;2252;-21
2024/04/03 16:01:37;;;;;;;;;;;;;;;;;;2209013;59;2546;-21
2024/04/03 16:04:07;;;;;;;;;;;;;;;;;;2208076;67;2709;-21
2024/04/03 16:06:38;;;;;;;;;;;;;;;;;;2209115;67;2376;-21
2024/04/03 16:09:08;;;;;;;;;;;;;;;;;;2207969;59;1962;-21
2024/04/03 16:11:43;;;;;;;;;;;;;;;;;;2209705;67;2965;-21
2024/04/03 16:14:15;;;;;;;;;;;;;;;;;;2209616;59;2869;-21
2024/04/03 16:16:46;;;;;;;;;;;;;;;;;;2208043;66;2600;-21
2024/04/03 16:19:16;;;;;;;;;;;;;;;;;;2208517;59;2296;-21
2024/04/03 16:21:47;;;;;;;;;;;;;;;;;;2206748;59;3056;-21
2024/04/03 16:24:19;;;;;;;;;;;;;;;;;;2209581;67;2205;-21
2024/04/03 16:26:49;;;;;;;;;;;;;;;;;;2207641;67;1766;-21
2024/04/03 16:29:20;;;;;;;;;;;;;;;;;;2207866;59;2605;-21
2024/04/03 16:31:50;;;;;;;;;;;;;;;;;;2209061;59;2005;-21
2024/04/03 16:34:21;;;;;;;;;;;;;;;;;;2211204;59;2648;-21
2024/04/03 16:36:51;;;;;;;;;;;;;;;;;;2207531;59;1997;-21
2024/04/03 16:39:22;;;;;;;;;;;;;;;;;;2208795;59;2399;-21
2024/04/03 16:41:52;;;;;;;;;;;;;;;;;;2208295;59;1910;-21
2024/04/03 16:44:23;;;;;;;;;;;;;;;;;;2209066;66;3011;-21
2024/04/03 16:46:53;;;;;;;;;;;;;;;;;;2207048;59;2467;-21
2024/04/03 16:49:24;;;;;;;;;;;;;;;;;;2208595;59;2664;-21
2024/04/03 16:51:54;;;;;;;;;;;;;;;;;;2207187;59;2756;-21
2024/04/03 16:54:25;;;;;;;;;;;;;;;;;;2206830;59;3661;-21
2024/04/03 16:56:55;;;;;;;;;;;;;;;;;;2207386;67;2586;-21
2024/04/03 16:59:27;;;;;;;;;;;;;;;;;;2209114;67;1910;-21
2024/04/03 17:01:58;;;;;;;;;;;;;;;;;;2208405;59;2375;-21
2024/04/03 17:04:29;;;;;;;;;;;;;;;;;;2207560;66;1953;-21
2024/04/03 17:06:59;;;;;;;;;;;;;;;;;;2207039;59;2514;-21
2024/04/03 17:09:30;;;;;;;;;;;;;;;;;;2208311;59;1926;-21
2024/04/03 17:12:00;;;;;;;;;;;;;;;;;;2207774;67;2011;-21
2024/04/03 17:14:31;;;;;;;;;;;;;;;;;;2209530;59;1850;-21
2024/04/03 17:17:01;;;;;;;;;;;;;;;;;;2209342;58;2366;-21
2024/04/03 17:19:31;;;;;;;;;;;;;;;;;;2208929;59;2622;-21
2024/04/03 17:22:02;;;;;;;;;;;;;;;;;;2208072;59;2076;-21
2024/04/03 17:24:33;;;;;;;;;;;;;;;;;;2208626;59;2735;-20
2024/04/03 17:27:03;;;;;;;;;;;;;;;;;;2207535;59;2339;-20
2024/04/03 17:29:34;;;;;;;;;;;;;;;;;;2208313;67;2512;-21
2024/04/03 17:32:06;;;;;;;;;;;;;;;;;;2207003;67;1966;-21
2024/04/03 17:34:36;;;;;;;;;;;;;;;;;;2207917;66;2934;-21